Swastika, Canada
Current Conditions -  °F | °C
As of 7:00 PM on Monday 22 Dec 2014 (Local Time) from CYXR Reporting Station
Overcast Overcast  
Wind Chill: -12°   Ceiling: 800
Heat Index: -5°   Visibility: 8mi
Dew Point: -5°   Wind: 15mph
Humidity: 100%   Direction: 130°SE
Pressure: 30.13"   Gusts: NA
Location:  48.1°N, 80.1°W
Report Text: CYXR 230000Z AUTO 13013KT 8SM OVC008 M05/M05 A3013 RMK SLP218
Loading
Personal Weather Stations






























Interactive Weather Map New forecast layout! Learn more

10-Day Weather Forecast

Advertisements
Track Severe Weather on mobile